Detall de PIREP

Printer-friendly versionPDF version

[2008/09/14 16:51:00]
Flight IATA:CT1001
Pilot Number:011
Company ICAO:CAT
Aircraft Type:F28/A
PAX:85
Departing Airport: LEVC
Destination Airport: LFMP
Alternate Airport:LFBO
Online: VATSIM
Route:SOPET UM985 BCN UN870 DALIN/NO300F240 A67 BGR/NO300F180 A27
Flight Level:FL280
No Slew and time accel
No pause
Crash detect
Detect pilot in Cockpit between each 30 and 45 minutes
16:51 Zero fuel Weight: 60287 Lbs, Fuel Weight: 9142 Lbs
16:51 VATSIM:LEVC 141630Z 12009KT CAVOK 25/08 Q1015 NOSIG
16:51 VATSIM:LFMP 141600Z 31027G40KT 9999 FEW048 21/09 Q1016 NOSIG
16:53 Parking Brakes off
17:04 Take-off
17:04 Take off Weight: 68877 Lbs
17:04 Wind: 123 @ 009 Knots Heading: 116
17:04 POS N39 29 12 W000 28 28
17:04 Gear Up: 180 Knots
17:04 Flaps:2 at 180 Knots
17:05 Flaps:1 at 230 Knots
17:05 Flaps:0 at 232 Knots
17:19 Wind:243@009 Knots Heading: 049 Ground Speed: 37
9 Knots Altitude 22654 ft
17:23 TOC
17:23 Fuel Weight: 6399 Lb
17:34 Wind:173@022 Knots Heading: 071 Ground Speed: 458 Knots Altitude 27992 ft
17:34 TOD
17:34 Fuel Weight: 5520 Lb
17:49 Wind:308@040 Knots Heading: 344 Ground Speed: 256 Knots Altitude 7637 ft
17:56 Flaps:1 at 239 Knots
17:56 Flaps:2 at 215 Knots
17:56 Flaps:3 at 204 Knots
17:59 Gear Down: 181 Knots
17:59 Flaps:4 at 181 Knots
17:59 Flaps:5 at 151 Knots
18:00 TouchDown:Rate -303 ft/min Speed: 123 Knots
18:00 VATSIM:LFMP 141730Z AUTO 31020G33KT 280V340 9999NDV NSC 20/10 Q1016
18:00 Land
18:00 Wind:306@020 Knots
18:00 Heading: 327
18:00 Flight Duration: 00:56
18:00 Landing Weight: 64757 Lbs
18:00 POS N42 44 48 E002 52 04
18:03 Parking brakes on
18:03 Block to Block Duration: 01:10
18:03 Final Fuel: 4318 Lbls
18:03 Spent Fuel: 4823 Lbls
18:03 Flight Length: 75 NM
18:03 TOD
Land Length: 28 NM

Exportar CSV

Powered by Drupal - Modified by Danger4k